Elmo, Missouri
Current Conditions -  °F | °C
As of 1:35 AM on Monday 22 Dec 2014 (Local Time) from KICL Reporting Station
Haze Haze  
Wind Chill: 37°   Ceiling: 800
Heat Index: 43°   Visibility: 6mi
Dew Point: 41°   Wind: 12mph
Humidity: 93%   Direction: 160°SSE
Pressure: 29.68"   Gusts: NA
Location:  40.52°N, 95.12°W
Report Text: KICL 220735Z AUTO 16010KT 6SM BR OVC008 06/05 A2968 RMK AO2
Loading
Personal Weather Stations






























Interactive Weather Map New forecast layout! Learn more

10-Day Weather Forecast

Advertisements
Track Severe Weather on mobile